sensor_id;sensor_type;location;lat;lon;timestamp;temperature;humidity
3602;DHT22;1815;50.950;6.920;2023-09-18T00:02:02;23.80;99.90
3602;DHT22;1815;50.950;6.920;2023-09-18T00:04:27;23.80;99.90
3602;DHT22;1815;50.950;6.920;2023-09-18T00:06:53;23.80;99.90
3602;DHT22;1815;50.950;6.920;2023-09-18T00:09:18;23.80;99.90
3602;DHT22;1815;50.950;6.920;2023-09-18T00:11:44;23.80;99.90
3602;DHT22;1815;50.950;6.920;2023-09-18T00:14:10;23.80;99.90
3602;DHT22;1815;50.950;6.920;2023-09-18T00:16:35;23.70;99.90
3602;DHT22;1815;50.950;6.920;2023-09-18T00:19:01;23.70;99.90
3602;DHT22;1815;50.950;6.920;2023-09-18T00:21:28;23.70;99.90
3602;DHT22;1815;50.950;6.920;2023-09-18T00:23:56;23.70;99.90
3602;DHT22;1815;50.950;6.920;2023-09-18T00:26:24;23.70;99.90
3602;DHT22;1815;50.950;6.920;2023-09-18T00:28:52;23.70;99.90
3602;DHT22;1815;50.950;6.920;2023-09-18T00:31:19;23.70;99.90
3602;DHT22;1815;50.950;6.920;2023-09-18T00:33:45;23.70;99.90
3602;DHT22;1815;50.950;6.920;2023-09-18T00:36:10;23.70;99.90
3602;DHT22;1815;50.950;6.920;2023-09-18T00:38:36;23.70;99.90
3602;DHT22;1815;50.950;6.920;2023-09-18T00:41:02;23.70;99.90
3602;DHT22;1815;50.950;6.920;2023-09-18T00:43:28;23.60;99.90
3602;DHT22;1815;50.950;6.920;2023-09-18T00:45:54;23.60;99.90
3602;DHT22;1815;50.950;6.920;2023-09-18T00:48:19;23.60;99.90
3602;DHT22;1815;50.950;6.920;2023-09-18T00:50:46;23.60;99.90
3602;DHT22;1815;50.950;6.920;2023-09-18T00:53:18;23.60;99.90
3602;DHT22;1815;50.950;6.920;2023-09-18T00:55:45;23.60;99.90
3602;DHT22;1815;50.950;6.920;2023-09-18T00:58:11;23.60;99.90
3602;DHT22;1815;50.950;6.920;2023-09-18T01:00:37;23.60;99.90
3602;DHT22;1815;50.950;6.920;2023-09-18T01:03:07;23.60;99.90
3602;DHT22;1815;50.950;6.920;2023-09-18T01:05:35;23.50;99.90
3602;DHT22;1815;50.950;6.920;2023-09-18T01:08:01;23.50;99.90
3602;DHT22;1815;50.950;6.920;2023-09-18T01:10:38;23.50;99.90
3602;DHT22;1815;50.950;6.920;2023-09-18T01:13:10;23.50;99.90
3602;DHT22;1815;50.950;6.920;2023-09-18T01:15:50;23.50;99.90
3602;DHT22;1815;50.950;6.920;2023-09-18T01:18:17;23.50;99.90
3602;DHT22;1815;50.950;6.920;2023-09-18T01:20:44;23.50;99.90
3602;DHT22;1815;50.950;6.920;2023-09-18T01:23:10;23.50;99.90
3602;DHT22;1815;50.950;6.920;2023-09-18T01:25:37;23.50;99.90
3602;DHT22;1815;50.950;6.920;2023-09-18T01:28:03;23.50;99.90
3602;DHT22;1815;50.950;6.920;2023-09-18T01:30:29;23.50;99.90
3602;DHT22;1815;50.950;6.920;2023-09-18T01:32:57;23.50;99.90
3602;DHT22;1815;50.950;6.920;2023-09-18T01:35:26;23.50;99.90
3602;DHT22;1815;50.950;6.920;2023-09-18T01:37:59;23.50;99.90
3602;DHT22;1815;50.950;6.920;2023-09-18T01:40:26;23.50;99.90
3602;DHT22;1815;50.950;6.920;2023-09-18T01:42:52;23.50;99.90
3602;DHT22;1815;50.950;6.920;2023-09-18T01:45:18;23.50;99.90
3602;DHT22;1815;50.950;6.920;2023-09-18T01:47:45;23.50;99.90
3602;DHT22;1815;50.950;6.920;2023-09-18T01:50:11;23.50;99.90
3602;DHT22;1815;50.950;6.920;2023-09-18T01:52:36;23.50;99.90
3602;DHT22;1815;50.950;6.920;2023-09-18T01:55:02;23.50;99.90
3602;DHT22;1815;50.950;6.920;2023-09-18T01:57:31;23.40;99.90
3602;DHT22;1815;50.950;6.920;2023-09-18T01:59:57;23.40;99.90
3602;DHT22;1815;50.950;6.920;2023-09-18T02:02:23;23.40;99.90
3602;DHT22;1815;50.950;6.920;2023-09-18T02:04:49;23.40;99.90
3602;DHT22;1815;50.950;6.920;2023-09-18T02:07:15;23.40;99.90
3602;DHT22;1815;50.950;6.920;2023-09-18T02:09:41;23.40;99.90
3602;DHT22;1815;50.950;6.920;2023-09-18T02:12:07;23.40;99.90
3602;DHT22;1815;50.950;6.920;2023-09-18T02:14:32;23.40;99.90
3602;DHT22;1815;50.950;6.920;2023-09-18T02:17:00;23.40;99.90
3602;DHT22;1815;50.950;6.920;2023-09-18T02:19:26;23.40;99.90
3602;DHT22;1815;50.950;6.920;2023-09-18T02:21:52;23.40;99.90
3602;DHT22;1815;50.950;6.920;2023-09-18T02:24:18;23.40;99.90
3602;DHT22;1815;50.950;6.920;2023-09-18T02:26:44;23.40;99.90
3602;DHT22;1815;50.950;6.920;2023-09-18T02:29:11;23.40;99.90
3602;DHT22;1815;50.950;6.920;2023-09-18T02:31:38;23.50;99.90
3602;DHT22;1815;50.950;6.920;2023-09-18T02:34:04;23.40;99.90
3602;DHT22;1815;50.950;6.920;2023-09-18T02:36:30;23.40;99.90
3602;DHT22;1815;50.950;6.920;2023-09-18T02:38:56;23.40;99.90
3602;DHT22;1815;50.950;6.920;2023-09-18T02:41:22;23.40;99.90
3602;DHT22;1815;50.950;6.920;2023-09-18T02:43:47;23.40;99.90
3602;DHT22;1815;50.950;6.920;2023-09-18T02:46:13;23.40;99.90
3602;DHT22;1815;50.950;6.920;2023-09-18T02:48:39;23.30;99.90
3602;DHT22;1815;50.950;6.920;2023-09-18T02:51:05;23.30;99.90
3602;DHT22;1815;50.950;6.920;2023-09-18T02:53:31;23.20;99.90
3602;DHT22;1815;50.950;6.920;2023-09-18T02:55:59;23.20;99.90
3602;DHT22;1815;50.950;6.920;2023-09-18T02:58:25;23.20;99.90
3602;DHT22;1815;50.950;6.920;2023-09-18T03:00:52;23.20;99.90
3602;DHT22;1815;50.950;6.920;2023-09-18T03:03:29;23.10;99.90
3602;DHT22;1815;50.950;6.920;2023-09-18T03:06:04;23.10;99.90
3602;DHT22;1815;50.950;6.920;2023-09-18T03:08:30;23.10;99.90
3602;DHT22;1815;50.950;6.920;2023-09-18T03:10:57;23.10;99.90
3602;DHT22;1815;50.950;6.920;2023-09-18T03:13:23;23.10;99.90
3602;DHT22;1815;50.950;6.920;2023-09-18T03:15:50;23.10;99.90
3602;DHT22;1815;50.950;6.920;2023-09-18T03:18:16;23.10;99.90
3602;DHT22;1815;50.950;6.920;2023-09-18T03:20:42;23.10;99.90
3602;DHT22;1815;50.950;6.920;2023-09-18T03:23:08;23.00;99.90
3602;DHT22;1815;50.950;6.920;2023-09-18T03:25:35;23.00;99.90
3602;DHT22;1815;50.950;6.920;2023-09-18T03:28:03;23.00;99.90
3602;DHT22;1815;50.950;6.920;2023-09-18T03:30:30;22.90;99.90
3602;DHT22;1815;50.950;6.920;2023-09-18T03:32:56;22.90;99.90
3602;DHT22;1815;50.950;6.920;2023-09-18T03:35:24;22.80;99.90
3602;DHT22;1815;50.950;6.920;2023-09-18T03:37:51;22.80;99.90
3602;DHT22;1815;50.950;6.920;2023-09-18T03:40:19;22.70;99.90
3602;DHT22;1815;50.950;6.920;2023-09-18T03:42:45;22.70;99.90
3602;DHT22;1815;50.950;6.920;2023-09-18T03:45:11;22.70;99.90
3602;DHT22;1815;50.950;6.920;2023-09-18T03:47:39;22.70;99.90
3602;DHT22;1815;50.950;6.920;2023-09-18T03:50:08;22.70;99.90
3602;DHT22;1815;50.950;6.920;2023-09-18T03:52:35;22.70;99.90
3602;DHT22;1815;50.950;6.920;2023-09-18T03:55:01;22.70;99.90
3602;DHT22;1815;50.950;6.920;2023-09-18T03:57:27;22.70;99.90
3602;DHT22;1815;50.950;6.920;2023-09-18T03:59:53;22.70;99.90
3602;DHT22;1815;50.950;6.920;2023-09-18T04:02:18;22.60;99.90
3602;DHT22;1815;50.950;6.920;2023-09-18T04:04:44;22.70;99.90
3602;DHT22;1815;50.950;6.920;2023-09-18T04:07:10;22.70;99.90
3602;DHT22;1815;50.950;6.920;2023-09-18T04:09:37;22.70;99.90
3602;DHT22;1815;50.950;6.920;2023-09-18T04:12:04;22.70;99.90
3602;DHT22;1815;50.950;6.920;2023-09-18T04:14:31;22.70;99.90
3602;DHT22;1815;50.950;6.920;2023-09-18T04:16:57;22.70;99.90
3602;DHT22;1815;50.950;6.920;2023-09-18T04:19:23;22.70;99.90
3602;DHT22;1815;50.950;6.920;2023-09-18T04:21:49;22.70;99.90
3602;DHT22;1815;50.950;6.920;2023-09-18T04:24:15;22.70;99.90
3602;DHT22;1815;50.950;6.920;2023-09-18T04:26:41;22.70;99.90
3602;DHT22;1815;50.950;6.920;2023-09-18T04:29:06;22.70;99.90
3602;DHT22;1815;50.950;6.920;2023-09-18T04:31:32;22.70;99.90
3602;DHT22;1815;50.950;6.920;2023-09-18T04:33:59;22.70;99.90
3602;DHT22;1815;50.950;6.920;2023-09-18T04:36:24;22.70;99.90
3602;DHT22;1815;50.950;6.920;2023-09-18T04:38:50;22.70;99.90
3602;DHT22;1815;50.950;6.920;2023-09-18T04:41:16;22.70;99.90
3602;DHT22;1815;50.950;6.920;2023-09-18T04:43:42;22.70;99.90
3602;DHT22;1815;50.950;6.920;2023-09-18T04:46:08;22.60;99.90
3602;DHT22;1815;50.950;6.920;2023-09-18T04:48:35;22.70;99.90
3602;DHT22;1815;50.950;6.920;2023-09-18T04:51:02;22.60;99.90
3602;DHT22;1815;50.950;6.920;2023-09-18T04:53:30;22.70;99.90
3602;DHT22;1815;50.950;6.920;2023-09-18T04:55:56;22.60;99.90
3602;DHT22;1815;50.950;6.920;2023-09-18T04:58:22;22.60;99.90
3602;DHT22;1815;50.950;6.920;2023-09-18T05:00:55;22.60;99.90
3602;DHT22;1815;50.950;6.920;2023-09-18T05:03:23;22.60;99.90
3602;DHT22;1815;50.950;6.920;2023-09-18T05:05:50;22.60;99.90
3602;DHT22;1815;50.950;6.920;2023-09-18T05:08:16;22.60;99.90
3602;DHT22;1815;50.950;6.920;2023-09-18T05:10:42;22.70;99.90
3602;DHT22;1815;50.950;6.920;2023-09-18T05:13:11;22.70;99.90
3602;DHT22;1815;50.950;6.920;2023-09-18T05:15:37;22.70;99.90
3602;DHT22;1815;50.950;6.920;2023-09-18T05:18:06;22.70;99.90
3602;DHT22;1815;50.950;6.920;2023-09-18T05:20:33;22.70;99.90
3602;DHT22;1815;50.950;6.920;2023-09-18T05:22:59;22.70;99.90
3602;DHT22;1815;50.950;6.920;2023-09-18T05:25:28;22.80;99.90
3602;DHT22;1815;50.950;6.920;2023-09-18T05:27:57;22.80;99.90
3602;DHT22;1815;50.950;6.920;2023-09-18T05:30:34;22.80;99.90
3602;DHT22;1815;50.950;6.920;2023-09-18T05:33:04;22.70;99.90
3602;DHT22;1815;50.950;6.920;2023-09-18T05:35:34;22.70;99.90
3602;DHT22;1815;50.950;6.920;2023-09-18T05:38:03;22.80;99.90
3602;DHT22;1815;50.950;6.920;2023-09-18T05:40:29;22.80;99.90
3602;DHT22;1815;50.950;6.920;2023-09-18T05:42:55;22.80;99.90
3602;DHT22;1815;50.950;6.920;2023-09-18T05:45:21;22.80;99.90
3602;DHT22;1815;50.950;6.920;2023-09-18T05:47:48;22.70;99.90
3602;DHT22;1815;50.950;6.920;2023-09-18T05:50:14;22.80;99.90
3602;DHT22;1815;50.950;6.920;2023-09-18T05:52:43;22.80;99.90
3602;DHT22;1815;50.950;6.920;2023-09-18T05:55:10;22.80;99.90
3602;DHT22;1815;50.950;6.920;2023-09-18T05:57:36;22.80;99.90
3602;DHT22;1815;50.950;6.920;2023-09-18T06:00:02;22.80;99.90
3602;DHT22;1815;50.950;6.920;2023-09-18T06:02:37;22.80;99.90
3602;DHT22;1815;50.950;6.920;2023-09-18T06:05:12;22.80;99.90
3602;DHT22;1815;50.950;6.920;2023-09-18T06:07:37;22.70;99.90
3602;DHT22;1815;50.950;6.920;2023-09-18T06:10:04;22.80;99.90
3602;DHT22;1815;50.950;6.920;2023-09-18T06:12:30;22.80;99.90
3602;DHT22;1815;50.950;6.920;2023-09-18T06:14:56;22.80;99.90
3602;DHT22;1815;50.950;6.920;2023-09-18T06:17:21;22.80;99.90
3602;DHT22;1815;50.950;6.920;2023-09-18T06:20:14;22.80;99.90
3602;DHT22;1815;50.950;6.920;2023-09-18T06:23:07;22.80;99.90
3602;DHT22;1815;50.950;6.920;2023-09-18T06:25:32;22.80;99.90
3602;DHT22;1815;50.950;6.920;2023-09-18T06:28:01;22.90;99.90
3602;DHT22;1815;50.950;6.920;2023-09-18T06:30:29;22.90;99.90
3602;DHT22;1815;50.950;6.920;2023-09-18T06:32:56;23.00;99.90
3602;DHT22;1815;50.950;6.920;2023-09-18T06:35:22;23.00;99.90
3602;DHT22;1815;50.950;6.920;2023-09-18T06:37:48;23.00;99.90
3602;DHT22;1815;50.950;6.920;2023-09-18T06:40:14;23.10;99.90
3602;DHT22;1815;50.950;6.920;2023-09-18T06:42:39;23.10;99.90
3602;DHT22;1815;50.950;6.920;2023-09-18T06:45:06;23.10;99.90
3602;DHT22;1815;50.950;6.920;2023-09-18T06:47:33;23.10;99.90
3602;DHT22;1815;50.950;6.920;2023-09-18T06:49:59;23.20;99.90
3602;DHT22;1815;50.950;6.920;2023-09-18T06:52:27;23.20;99.90
3602;DHT22;1815;50.950;6.920;2023-09-18T06:54:53;23.20;99.90
3602;DHT22;1815;50.950;6.920;2023-09-18T06:57:19;23.30;99.90
3602;DHT22;1815;50.950;6.920;2023-09-18T06:59:47;23.40;99.90
3602;DHT22;1815;50.950;6.920;2023-09-18T07:02:15;23.40;99.90
3602;DHT22;1815;50.950;6.920;2023-09-18T07:04:42;23.50;99.90
3602;DHT22;1815;50.950;6.920;2023-09-18T07:07:12;23.50;99.90
3602;DHT22;1815;50.950;6.920;2023-09-18T07:09:42;23.60;99.90
3602;DHT22;1815;50.950;6.920;2023-09-18T07:12:08;23.60;99.90
3602;DHT22;1815;50.950;6.920;2023-09-18T07:14:35;23.70;99.90
3602;DHT22;1815;50.950;6.920;2023-09-18T07:17:02;23.80;99.90
3602;DHT22;1815;50.950;6.920;2023-09-18T07:19:27;23.90;99.90
3602;DHT22;1815;50.950;6.920;2023-09-18T07:21:53;24.00;99.90
3602;DHT22;1815;50.950;6.920;2023-09-18T07:24:19;24.20;99.90
3602;DHT22;1815;50.950;6.920;2023-09-18T07:26:48;24.30;99.90
3602;DHT22;1815;50.950;6.920;2023-09-18T07:29:15;24.40;99.90
3602;DHT22;1815;50.950;6.920;2023-09-18T07:31:42;24.60;99.90
3602;DHT22;1815;50.950;6.920;2023-09-18T07:34:08;24.60;99.90
3602;DHT22;1815;50.950;6.920;2023-09-18T07:36:35;24.70;99.90
3602;DHT22;1815;50.950;6.920;2023-09-18T07:39:03;24.70;99.90
3602;DHT22;1815;50.950;6.920;2023-09-18T07:41:30;24.70;99.90
3602;DHT22;1815;50.950;6.920;2023-09-18T07:43:56;24.70;99.90
3602;DHT22;1815;50.950;6.920;2023-09-18T07:46:24;24.70;99.90
3602;DHT22;1815;50.950;6.920;2023-09-18T07:48:50;24.80;99.90
3602;DHT22;1815;50.950;6.920;2023-09-18T07:51:16;24.80;99.90
3602;DHT22;1815;50.950;6.920;2023-09-18T07:53:42;24.80;99.90
3602;DHT22;1815;50.950;6.920;2023-09-18T07:56:08;24.80;99.90
3602;DHT22;1815;50.950;6.920;2023-09-18T07:58:34;24.90;99.90
3602;DHT22;1815;50.950;6.920;2023-09-18T08:01:04;24.90;99.90
3602;DHT22;1815;50.950;6.920;2023-09-18T08:03:34;24.80;99.90
3602;DHT22;1815;50.950;6.920;2023-09-18T08:06:00;24.90;99.90
3602;DHT22;1815;50.950;6.920;2023-09-18T08:08:26;24.80;99.90
3602;DHT22;1815;50.950;6.920;2023-09-18T08:10:53;24.80;99.90
3602;DHT22;1815;50.950;6.920;2023-09-18T08:13:19;24.80;99.90
3602;DHT22;1815;50.950;6.920;2023-09-18T08:15:49;24.80;99.90
3602;DHT22;1815;50.950;6.920;2023-09-18T08:18:16;24.80;99.90
3602;DHT22;1815;50.950;6.920;2023-09-18T08:20:42;24.80;99.90
3602;DHT22;1815;50.950;6.920;2023-09-18T08:23:09;24.80;99.90
3602;DHT22;1815;50.950;6.920;2023-09-18T08:25:35;24.90;99.90
3602;DHT22;1815;50.950;6.920;2023-09-18T08:28:01;24.90;99.90
3602;DHT22;1815;50.950;6.920;2023-09-18T08:30:28;25.00;99.90
3602;DHT22;1815;50.950;6.920;2023-09-18T08:32:54;25.00;99.90
3602;DHT22;1815;50.950;6.920;2023-09-18T08:35:20;25.10;99.90
3602;DHT22;1815;50.950;6.920;2023-09-18T08:37:47;25.10;99.90
3602;DHT22;1815;50.950;6.920;2023-09-18T08:40:13;25.20;99.90
3602;DHT22;1815;50.950;6.920;2023-09-18T08:42:45;25.20;99.90
3602;DHT22;1815;50.950;6.920;2023-09-18T08:45:32;25.20;99.90
3602;DHT22;1815;50.950;6.920;2023-09-18T08:48:00;25.20;99.90
3602;DHT22;1815;50.950;6.920;2023-09-18T08:50:27;25.30;99.90
3602;DHT22;1815;50.950;6.920;2023-09-18T08:52:54;25.30;99.90
3602;DHT22;1815;50.950;6.920;2023-09-18T08:55:20;25.30;99.90
3602;DHT22;1815;50.950;6.920;2023-09-18T08:57:46;25.30;99.90
3602;DHT22;1815;50.950;6.920;2023-09-18T09:00:13;25.40;99.90
3602;DHT22;1815;50.950;6.920;2023-09-18T09:02:44;25.50;99.90
3602;DHT22;1815;50.950;6.920;2023-09-18T09:05:10;25.60;99.90
3602;DHT22;1815;50.950;6.920;2023-09-18T09:07:35;25.80;99.90
3602;DHT22;1815;50.950;6.920;2023-09-18T09:10:01;26.00;99.90
3602;DHT22;1815;50.950;6.920;2023-09-18T09:12:49;26.00;99.90
3602;DHT22;1815;50.950;6.920;2023-09-18T09:15:15;26.10;99.90
3602;DHT22;1815;50.950;6.920;2023-09-18T09:17:42;26.10;99.90
3602;DHT22;1815;50.950;6.920;2023-09-18T09:20:12;26.10;99.90
3602;DHT22;1815;50.950;6.920;2023-09-18T09:22:39;26.10;99.90
3602;DHT22;1815;50.950;6.920;2023-09-18T09:25:30;26.10;99.90
3602;DHT22;1815;50.950;6.920;2023-09-18T09:28:07;26.10;99.90
3602;DHT22;1815;50.950;6.920;2023-09-18T09:30:34;26.10;99.90
3602;DHT22;1815;50.950;6.920;2023-09-18T09:33:04;26.10;99.90
3602;DHT22;1815;50.950;6.920;2023-09-18T09:35:32;26.10;99.90
3602;DHT22;1815;50.950;6.920;2023-09-18T09:38:17;26.20;99.90
3602;DHT22;1815;50.950;6.920;2023-09-18T09:40:45;26.20;99.90
3602;DHT22;1815;50.950;6.920;2023-09-18T09:43:12;26.40;99.90
3602;DHT22;1815;50.950;6.920;2023-09-18T09:45:40;26.50;99.90
3602;DHT22;1815;50.950;6.920;2023-09-18T09:48:07;26.50;99.90
3602;DHT22;1815;50.950;6.920;2023-09-18T09:50:41;26.60;99.90
3602;DHT22;1815;50.950;6.920;2023-09-18T09:53:12;26.70;99.90
3602;DHT22;1815;50.950;6.920;2023-09-18T09:55:40;26.80;99.90
3602;DHT22;1815;50.950;6.920;2023-09-18T09:58:07;26.90;99.90
3602;DHT22;1815;50.950;6.920;2023-09-18T10:03:22;27.20;99.90
3602;DHT22;1815;50.950;6.920;2023-09-18T10:05:51;27.30;99.90
3602;DHT22;1815;50.950;6.920;2023-09-18T10:08:26;27.50;99.90
3602;DHT22;1815;50.950;6.920;2023-09-18T10:10:55;27.60;99.90
3602;DHT22;1815;50.950;6.920;2023-09-18T10:13:47;27.90;99.90
3602;DHT22;1815;50.950;6.920;2023-09-18T10:16:17;28.20;99.90
3602;DHT22;1815;50.950;6.920;2023-09-18T10:19:03;28.60;99.90
3602;DHT22;1815;50.950;6.920;2023-09-18T10:22:06;29.00;99.90
3602;DHT22;1815;50.950;6.920;2023-09-18T10:24:40;29.70;99.90
3602;DHT22;1815;50.950;6.920;2023-09-18T10:27:07;30.60;99.90
3602;DHT22;1815;50.950;6.920;2023-09-18T10:29:35;31.40;99.90
3602;DHT22;1815;50.950;6.920;2023-09-18T10:32:06;32.00;99.90
3602;DHT22;1815;50.950;6.920;2023-09-18T10:34:35;32.70;99.90
3602;DHT22;1815;50.950;6.920;2023-09-18T10:37:03;33.30;99.90
3602;DHT22;1815;50.950;6.920;2023-09-18T10:39:37;33.80;99.90
3602;DHT22;1815;50.950;6.920;2023-09-18T10:42:04;34.20;99.90
3602;DHT22;1815;50.950;6.920;2023-09-18T10:44:32;34.60;99.90
3602;DHT22;1815;50.950;6.920;2023-09-18T10:46:58;35.00;99.90
3602;DHT22;1815;50.950;6.920;2023-09-18T10:49:26;35.30;99.90
3602;DHT22;1815;50.950;6.920;2023-09-18T10:51:55;35.50;99.90
3602;DHT22;1815;50.950;6.920;2023-09-18T10:54:23;35.70;99.20
3602;DHT22;1815;50.950;6.920;2023-09-18T10:56:50;35.80;98.40
3602;DHT22;1815;50.950;6.920;2023-09-18T10:59:16;35.90;97.90
3602;DHT22;1815;50.950;6.920;2023-09-18T11:01:43;36.10;96.90
3602;DHT22;1815;50.950;6.920;2023-09-18T11:04:09;36.30;95.20
3602;DHT22;1815;50.950;6.920;2023-09-18T11:07:20;36.30;93.90
3602;DHT22;1815;50.950;6.920;2023-09-18T11:09:46;36.30;93.20
3602;DHT22;1815;50.950;6.920;2023-09-18T11:12:16;36.50;92.40
3602;DHT22;1815;50.950;6.920;2023-09-18T11:14:56;36.50;91.70
3602;DHT22;1815;50.950;6.920;2023-09-18T11:17:37;36.50;87.50
3602;DHT22;1815;50.950;6.920;2023-09-18T11:22:32;36.50;87.60
3602;DHT22;1815;50.950;6.920;2023-09-18T11:28:00;36.50;82.90
3602;DHT22;1815;50.950;6.920;2023-09-18T11:30:28;36.40;81.90
3602;DHT22;1815;50.950;6.920;2023-09-18T11:32:54;36.30;80.50
3602;DHT22;1815;50.950;6.920;2023-09-18T11:35:21;36.30;79.90
3602;DHT22;1815;50.950;6.920;2023-09-18T11:37:48;36.20;77.80
3602;DHT22;1815;50.950;6.920;2023-09-18T11:40:32;36.00;77.00
3602;DHT22;1815;50.950;6.920;2023-09-18T11:43:28;35.90;76.80
3602;DHT22;1815;50.950;6.920;2023-09-18T11:45:59;35.90;76.10
3602;DHT22;1815;50.950;6.920;2023-09-18T11:48:27;35.70;73.80
3602;DHT22;1815;50.950;6.920;2023-09-18T11:50:56;35.50;73.10
3602;DHT22;1815;50.950;6.920;2023-09-18T11:53:29;35.30;72.30
3602;DHT22;1815;50.950;6.920;2023-09-18T11:56:02;35.20;68.20
3602;DHT22;1815;50.950;6.920;2023-09-18T11:58:28;35.10;73.60
3602;DHT22;1815;50.950;6.920;2023-09-18T12:00:55;35.10;74.10
3602;DHT22;1815;50.950;6.920;2023-09-18T12:03:23;35.10;73.70
3602;DHT22;1815;50.950;6.920;2023-09-18T12:06:02;35.10;72.90
3602;DHT22;1815;50.950;6.920;2023-09-18T12:08:31;35.10;73.10
3602;DHT22;1815;50.950;6.920;2023-09-18T12:10:58;35.10;72.40
3602;DHT22;1815;50.950;6.920;2023-09-18T12:13:27;35.10;71.20
3602;DHT22;1815;50.950;6.920;2023-09-18T12:16:03;35.00;70.60
3602;DHT22;1815;50.950;6.920;2023-09-18T12:18:35;34.90;68.90
3602;DHT22;1815;50.950;6.920;2023-09-18T12:21:06;34.80;68.20
3602;DHT22;1815;50.950;6.920;2023-09-18T12:23:41;34.50;68.00
3602;DHT22;1815;50.950;6.920;2023-09-18T12:26:12;34.40;68.00
3602;DHT22;1815;50.950;6.920;2023-09-18T12:28:42;34.30;69.00
3602;DHT22;1815;50.950;6.920;2023-09-18T12:31:13;34.20;68.20
3602;DHT22;1815;50.950;6.920;2023-09-18T12:33:40;34.00;67.00
3602;DHT22;1815;50.950;6.920;2023-09-18T12:36:07;33.80;67.30
3602;DHT22;1815;50.950;6.920;2023-09-18T12:38:33;33.60;67.10
3602;DHT22;1815;50.950;6.920;2023-09-18T12:41:00;33.30;67.20
3602;DHT22;1815;50.950;6.920;2023-09-18T12:43:39;33.20;68.00
3602;DHT22;1815;50.950;6.920;2023-09-18T12:46:09;33.00;67.10
3602;DHT22;1815;50.950;6.920;2023-09-18T12:48:39;32.80;67.00
3602;DHT22;1815;50.950;6.920;2023-09-18T12:51:11;32.70;67.60
3602;DHT22;1815;50.950;6.920;2023-09-18T12:53:37;32.60;68.30
3602;DHT22;1815;50.950;6.920;2023-09-18T12:56:11;32.40;68.30
3602;DHT22;1815;50.950;6.920;2023-09-18T12:58:38;32.40;68.60
3602;DHT22;1815;50.950;6.920;2023-09-18T13:01:09;32.30;68.90
3602;DHT22;1815;50.950;6.920;2023-09-18T13:03:42;32.20;68.60
3602;DHT22;1815;50.950;6.920;2023-09-18T13:06:16;32.00;66.90
3602;DHT22;1815;50.950;6.920;2023-09-18T13:08:43;31.90;66.50
3602;DHT22;1815;50.950;6.920;2023-09-18T13:11:09;31.70;66.30
3602;DHT22;1815;50.950;6.920;2023-09-18T13:13:36;31.50;66.10
3602;DHT22;1815;50.950;6.920;2023-09-18T13:16:05;31.20;65.90
3602;DHT22;1815;50.950;6.920;2023-09-18T13:18:31;30.90;65.50
3602;DHT22;1815;50.950;6.920;2023-09-18T13:20:57;30.70;65.70
3602;DHT22;1815;50.950;6.920;2023-09-18T13:23:32;30.40;65.40
3602;DHT22;1815;50.950;6.920;2023-09-18T13:26:05;30.20;65.60
3602;DHT22;1815;50.950;6.920;2023-09-18T13:28:31;30.00;65.30
3602;DHT22;1815;50.950;6.920;2023-09-18T13:30:59;29.80;65.80
3602;DHT22;1815;50.950;6.920;2023-09-18T13:33:25;29.60;66.40
3602;DHT22;1815;50.950;6.920;2023-09-18T13:35:51;29.50;66.80
3602;DHT22;1815;50.950;6.920;2023-09-18T13:38:18;29.40;67.30
3602;DHT22;1815;50.950;6.920;2023-09-18T13:40:49;29.20;67.60
3602;DHT22;1815;50.950;6.920;2023-09-18T13:43:16;29.10;67.80
3602;DHT22;1815;50.950;6.920;2023-09-18T13:45:44;29.00;67.90
3602;DHT22;1815;50.950;6.920;2023-09-18T13:48:10;29.00;68.50
3602;DHT22;1815;50.950;6.920;2023-09-18T13:50:37;28.90;68.60
3602;DHT22;1815;50.950;6.920;2023-09-18T13:53:04;28.80;68.40
3602;DHT22;1815;50.950;6.920;2023-09-18T13:55:32;28.70;68.40
3602;DHT22;1815;50.950;6.920;2023-09-18T13:57:57;28.60;68.60
3602;DHT22;1815;50.950;6.920;2023-09-18T14:00:23;28.50;69.00
3602;DHT22;1815;50.950;6.920;2023-09-18T14:02:51;28.50;68.90
3602;DHT22;1815;50.950;6.920;2023-09-18T14:05:16;28.50;69.20
3602;DHT22;1815;50.950;6.920;2023-09-18T14:07:42;28.50;69.40
3602;DHT22;1815;50.950;6.920;2023-09-18T14:10:09;28.40;69.20
3602;DHT22;1815;50.950;6.920;2023-09-18T14:12:36;28.50;69.60
3602;DHT22;1815;50.950;6.920;2023-09-18T14:15:06;28.40;69.40
3602;DHT22;1815;50.950;6.920;2023-09-18T14:17:33;28.40;69.30
3602;DHT22;1815;50.950;6.920;2023-09-18T14:19:59;28.40;69.30
3602;DHT22;1815;50.950;6.920;2023-09-18T14:22:26;28.40;69.00
3602;DHT22;1815;50.950;6.920;2023-09-18T14:24:52;28.40;69.10
3602;DHT22;1815;50.950;6.920;2023-09-18T14:27:17;28.40;69.20
3602;DHT22;1815;50.950;6.920;2023-09-18T14:29:43;28.40;69.50
3602;DHT22;1815;50.950;6.920;2023-09-18T14:32:09;28.40;69.80
3602;DHT22;1815;50.950;6.920;2023-09-18T14:34:35;28.50;69.70
3602;DHT22;1815;50.950;6.920;2023-09-18T14:37:04;28.50;69.30
3602;DHT22;1815;50.950;6.920;2023-09-18T14:39:31;28.50;68.80
3602;DHT22;1815;50.950;6.920;2023-09-18T14:41:57;28.50;69.30
3602;DHT22;1815;50.950;6.920;2023-09-18T14:44:22;28.50;69.30
3602;DHT22;1815;50.950;6.920;2023-09-18T14:46:48;28.50;69.50
3602;DHT22;1815;50.950;6.920;2023-09-18T14:49:14;28.60;69.90
3602;DHT22;1815;50.950;6.920;2023-09-18T14:51:40;28.50;69.30
3602;DHT22;1815;50.950;6.920;2023-09-18T14:54:06;28.50;69.40
3602;DHT22;1815;50.950;6.920;2023-09-18T14:56:33;28.50;69.70
3602;DHT22;1815;50.950;6.920;2023-09-18T14:59:02;28.50;69.80
3602;DHT22;1815;50.950;6.920;2023-09-18T15:01:28;28.40;69.70
3602;DHT22;1815;50.950;6.920;2023-09-18T15:03:54;28.30;69.50
3602;DHT22;1815;50.950;6.920;2023-09-18T15:06:20;28.30;69.60
3602;DHT22;1815;50.950;6.920;2023-09-18T15:08:46;28.30;69.80
3602;DHT22;1815;50.950;6.920;2023-09-18T15:11:13;28.30;70.00
3602;DHT22;1815;50.950;6.920;2023-09-18T15:13:43;28.30;70.10
3602;DHT22;1815;50.950;6.920;2023-09-18T15:16:08;28.30;70.30
3602;DHT22;1815;50.950;6.920;2023-09-18T15:18:34;28.30;70.00
3602;DHT22;1815;50.950;6.920;2023-09-18T15:21:01;28.30;69.90
3602;DHT22;1815;50.950;6.920;2023-09-18T15:23:27;28.20;69.70
3602;DHT22;1815;50.950;6.920;2023-09-18T15:25:55;28.20;69.70
3602;DHT22;1815;50.950;6.920;2023-09-18T15:28:24;28.20;69.60
3602;DHT22;1815;50.950;6.920;2023-09-18T15:30:53;28.10;69.80
3602;DHT22;1815;50.950;6.920;2023-09-18T15:33:19;28.10;69.70
3602;DHT22;1815;50.950;6.920;2023-09-18T15:35:48;28.10;69.70
3602;DHT22;1815;50.950;6.920;2023-09-18T15:38:14;28.00;70.50
3602;DHT22;1815;50.950;6.920;2023-09-18T15:40:40;28.00;69.80
3602;DHT22;1815;50.950;6.920;2023-09-18T15:43:05;28.00;69.70
3602;DHT22;1815;50.950;6.920;2023-09-18T15:45:32;27.90;69.80
3602;DHT22;1815;50.950;6.920;2023-09-18T15:48:01;27.90;69.90
3602;DHT22;1815;50.950;6.920;2023-09-18T15:50:27;27.90;69.70
3602;DHT22;1815;50.950;6.920;2023-09-18T15:52:53;27.80;69.70
3602;DHT22;1815;50.950;6.920;2023-09-18T15:55:20;27.70;69.40
3602;DHT22;1815;50.950;6.920;2023-09-18T15:57:45;27.70;69.40
3602;DHT22;1815;50.950;6.920;2023-09-18T16:00:12;27.50;69.40
3602;DHT22;1815;50.950;6.920;2023-09-18T16:02:39;27.40;69.50
3602;DHT22;1815;50.950;6.920;2023-09-18T16:05:06;27.30;69.80
3602;DHT22;1815;50.950;6.920;2023-09-18T16:07:33;27.30;70.10
3602;DHT22;1815;50.950;6.920;2023-09-18T16:10:01;27.20;70.10
3602;DHT22;1815;50.950;6.920;2023-09-18T16:12:27;27.20;70.40
3602;DHT22;1815;50.950;6.920;2023-09-18T16:14:54;27.20;70.70
3602;DHT22;1815;50.950;6.920;2023-09-18T16:17:19;27.20;70.90